createdAt,value
2023-05-14T00:00:52.231Z,11.75
2023-05-14T00:03:19.357Z,13.13
2023-05-14T00:05:46.516Z,13.68
2023-05-14T00:08:13.596Z,11.90
2023-05-14T00:10:40.737Z,19.10
2023-05-14T00:13:07.786Z,22.33
2023-05-14T00:15:34.892Z,17.38
2023-05-14T00:18:02.045Z,17.63
2023-05-14T00:20:29.105Z,16.45
2023-05-14T00:22:56.419Z,14.63
2023-05-14T00:25:23.614Z,20.50
2023-05-14T00:27:50.749Z,16.20
2023-05-14T00:30:17.842Z,18.75
2023-05-14T00:32:44.920Z,16.27
2023-05-14T00:35:12.208Z,15.18
2023-05-14T00:37:39.678Z,15.90
2023-05-14T00:40:08.473Z,12.40
2023-05-14T00:42:35.672Z,12.80
2023-05-14T00:45:02.756Z,13.98
2023-05-14T00:47:29.921Z,15.70
2023-05-14T00:49:56.999Z,13.95
2023-05-14T00:52:24.161Z,15.98
2023-05-14T00:54:51.515Z,12.93
2023-05-14T00:57:19.319Z,16.25
2023-05-14T00:59:46.419Z,14.68
2023-05-14T01:02:13.501Z,15.85
2023-05-14T01:04:40.745Z,14.50
2023-05-14T01:07:10.779Z,13.88
2023-05-14T01:09:40.970Z,15.52
2023-05-14T01:12:20.065Z,19.15
2023-05-14T01:15:02.721Z,15.57
2023-05-14T01:17:30.427Z,15.80
2023-05-14T01:19:57.773Z,13.35
2023-05-14T01:22:24.835Z,12.00
2023-05-14T01:24:51.969Z,18.17
2023-05-14T01:27:24.127Z,14.65
2023-05-14T01:29:56.000Z,18.40
2023-05-14T01:32:24.554Z,14.00
2023-05-14T01:34:51.721Z,19.55
2023-05-14T01:37:19.048Z,15.52
2023-05-14T01:39:46.560Z,13.30
2023-05-14T01:42:14.041Z,14.65
2023-05-14T01:44:41.378Z,14.65
2023-05-14T01:47:08.487Z,18.05
2023-05-14T01:49:37.144Z,16.55
2023-05-14T01:52:04.310Z,17.75
2023-05-14T01:54:31.389Z,16.25
2023-05-14T01:56:58.575Z,21.23
2023-05-14T01:59:25.766Z,17.08
2023-05-14T02:01:52.976Z,19.30
2023-05-14T02:04:20.750Z,16.20
2023-05-14T02:06:47.866Z,17.77
2023-05-14T02:09:14.896Z,18.23
2023-05-14T02:11:41.938Z,20.02
2023-05-14T02:14:09.027Z,17.33
2023-05-14T02:16:36.089Z,17.10
2023-05-14T02:19:03.237Z,15.70
2023-05-14T02:21:30.734Z,17.90
2023-05-14T02:23:57.871Z,17.08
2023-05-14T02:26:25.041Z,18.75
2023-05-14T02:28:52.133Z,16.23
2023-05-14T02:31:19.510Z,19.52
2023-05-14T02:33:46.666Z,19.60
2023-05-14T02:36:13.772Z,20.67
2023-05-14T02:38:40.891Z,18.60
2023-05-14T02:41:07.969Z,17.83
2023-05-14T02:43:35.056Z,19.73
2023-05-14T02:46:02.146Z,17.83
2023-05-14T02:48:29.428Z,22.98
2023-05-14T02:50:56.523Z,25.60
2023-05-14T02:53:23.578Z,18.08
2023-05-14T02:55:50.688Z,24.63
2023-05-14T02:58:17.814Z,21.05
2023-05-14T03:00:44.937Z,21.30
2023-05-14T03:03:12.374Z,17.25
2023-05-14T03:05:39.980Z,22.98
2023-05-14T03:08:07.247Z,18.60
2023-05-14T03:10:34.346Z,25.02
2023-05-14T03:13:01.492Z,22.13
2023-05-14T03:15:28.633Z,20.80
2023-05-14T03:17:55.739Z,24.27
2023-05-14T03:20:24.845Z,24.02
2023-05-14T03:22:52.247Z,23.40
2023-05-14T03:25:19.337Z,20.55
2023-05-14T03:27:46.465Z,22.20
2023-05-14T03:30:13.664Z,32.42
2023-05-14T03:32:41.380Z,23.20
2023-05-14T03:35:08.668Z,24.90
2023-05-14T03:37:35.712Z,20.45
2023-05-14T03:40:02.767Z,23.20
2023-05-14T03:42:29.838Z,19.58
2023-05-14T03:44:56.927Z,20.38
2023-05-14T03:47:24.058Z,20.95
2023-05-14T03:49:51.406Z,19.88
2023-05-14T03:52:18.514Z,20.48
2023-05-14T03:54:45.533Z,23.80
2023-05-14T03:57:12.567Z,21.60
2023-05-14T03:59:39.639Z,21.10
2023-05-14T04:02:07.957Z,22.13
2023-05-14T04:04:35.172Z,22.05
2023-05-14T04:07:02.267Z,20.10
2023-05-14T04:09:29.348Z,19.08
2023-05-14T04:11:56.391Z,22.90
2023-05-14T04:14:23.424Z,20.17
2023-05-14T04:16:50.452Z,22.13
2023-05-14T04:19:17.669Z,26.63
2023-05-14T04:21:45.297Z,22.55
2023-05-14T04:24:12.381Z,18.85
2023-05-14T04:26:39.419Z,21.20
2023-05-14T04:29:06.533Z,21.55
2023-05-14T04:31:33.811Z,21.58
2023-05-14T04:34:01.060Z,24.25
2023-05-14T04:36:28.191Z,19.50
2023-05-14T04:38:55.930Z,24.92
2023-05-14T04:41:22.984Z,23.27
2023-05-14T04:43:50.762Z,23.27
2023-05-14T04:46:17.873Z,23.67
2023-05-14T04:48:45.008Z,25.85
2023-05-14T04:51:12.267Z,20.40
2023-05-14T04:53:39.360Z,25.02
2023-05-14T04:56:06.630Z,22.38
2023-05-14T04:58:35.083Z,23.27
2023-05-14T05:01:03.491Z,22.27
2023-05-14T05:03:31.207Z,22.05
2023-05-14T05:05:58.417Z,21.38
2023-05-14T05:08:25.520Z,20.17
2023-05-14T05:10:52.669Z,20.13
2023-05-14T05:13:19.749Z,19.48
2023-05-14T05:15:46.887Z,17.15
2023-05-14T05:18:14.203Z,19.08
2023-05-14T05:20:41.298Z,17.30
2023-05-14T05:23:08.396Z,13.20
2023-05-14T05:25:35.614Z,13.45
2023-05-14T05:28:02.730Z,11.65
2023-05-14T05:30:30.310Z,14.55
2023-05-14T05:32:57.673Z,11.88
2023-05-14T05:35:24.851Z,11.38
2023-05-14T05:37:52.067Z,8.65
2023-05-14T05:40:19.133Z,11.55
2023-05-14T05:42:46.226Z,8.48
2023-05-14T05:45:13.302Z,8.07
2023-05-14T05:47:40.772Z,10.25
2023-05-14T05:50:08.147Z,9.00
2023-05-14T05:52:35.262Z,9.00
2023-05-14T05:55:02.388Z,7.82
2023-05-14T05:57:29.764Z,6.38
2023-05-14T05:59:56.917Z,10.00
2023-05-14T06:02:25.223Z,6.80
2023-05-14T06:04:53.244Z,9.05
2023-05-14T06:07:20.371Z,7.45
2023-05-14T06:09:47.454Z,16.63
2023-05-14T06:12:14.584Z,7.43
2023-05-14T06:14:41.775Z,8.55
2023-05-14T06:17:09.006Z,7.55
2023-05-14T06:19:36.091Z,8.93
2023-05-14T06:22:03.152Z,7.38
2023-05-14T06:24:30.327Z,8.32
2023-05-14T06:26:57.462Z,8.90
2023-05-14T06:29:24.588Z,10.98
2023-05-14T06:31:51.745Z,7.78
2023-05-14T06:34:18.815Z,8.70
2023-05-14T06:36:45.861Z,8.50
2023-05-14T06:39:13.029Z,8.95
2023-05-14T06:41:40.183Z,9.80
2023-05-14T06:44:07.340Z,10.90
2023-05-14T06:46:34.491Z,9.13
2023-05-14T06:49:01.655Z,9.05
2023-05-14T06:51:28.814Z,8.43
2023-05-14T06:53:56.475Z,5.57
2023-05-14T06:56:23.737Z,6.82
2023-05-14T06:58:51.119Z,7.78
2023-05-14T07:01:18.237Z,6.20
2023-05-14T07:03:45.343Z,10.02
2023-05-14T07:06:13.668Z,7.55
2023-05-14T07:08:40.900Z,7.45
2023-05-14T07:11:07.940Z,6.55
2023-05-14T07:13:35.054Z,9.38
2023-05-14T07:16:02.140Z,7.78
2023-05-14T07:18:29.277Z,5.72
2023-05-14T07:20:56.355Z,8.68
2023-05-14T07:23:23.477Z,7.70
2023-05-14T07:25:50.580Z,6.22
2023-05-14T07:28:17.747Z,7.18
2023-05-14T07:30:44.837Z,7.28
2023-05-14T07:33:12.009Z,7.68
2023-05-14T07:35:39.207Z,6.18
2023-05-14T07:38:06.377Z,10.55
2023-05-14T07:40:33.519Z,11.30
2023-05-14T07:43:00.668Z,10.05
2023-05-14T07:45:27.788Z,10.02
2023-05-14T07:47:54.859Z,10.15
2023-05-14T07:50:22.300Z,11.05
2023-05-14T07:52:49.528Z,7.65
2023-05-14T07:55:16.955Z,9.73
2023-05-14T07:57:44.074Z,6.55
2023-05-14T08:00:12.231Z,9.02
2023-05-14T08:02:39.439Z,8.35
2023-05-14T08:05:06.789Z,11.23
2023-05-14T08:07:33.938Z,8.85
2023-05-14T08:10:01.054Z,8.73
2023-05-14T08:12:29.579Z,7.13
2023-05-14T08:14:56.720Z,6.70
2023-05-14T08:17:23.837Z,6.32
2023-05-14T08:19:50.897Z,7.32
2023-05-14T08:22:17.956Z,7.55
2023-05-14T08:24:45.110Z,5.82
2023-05-14T08:27:12.229Z,6.97
2023-05-14T08:29:39.570Z,6.50
2023-05-14T08:32:19.374Z,6.75
2023-05-14T08:34:50.808Z,5.82
2023-05-14T08:37:18.015Z,5.30
2023-05-14T08:39:45.282Z,7.13
2023-05-14T08:42:13.508Z,7.15
2023-05-14T08:44:46.269Z,7.47
2023-05-14T08:47:16.205Z,8.27
2023-05-14T08:49:44.984Z,7.60
2023-05-14T08:52:12.691Z,5.95
2023-05-14T08:54:40.696Z,6.47
2023-05-14T08:57:09.915Z,7.07
2023-05-14T08:59:37.271Z,6.45
2023-05-14T09:02:06.369Z,6.85
2023-05-14T09:04:34.698Z,8.57
2023-05-14T09:07:02.825Z,6.05
2023-05-14T09:09:30.367Z,8.32
2023-05-14T09:11:57.505Z,7.88
2023-05-14T09:14:24.633Z,6.97
2023-05-14T09:16:52.361Z,7.97
2023-05-14T09:19:20.008Z,4.70
2023-05-14T09:21:47.866Z,7.05
2023-05-14T09:24:25.367Z,7.05
2023-05-14T09:26:57.064Z,7.15
2023-05-14T09:29:28.117Z,8.30
2023-05-14T09:31:56.195Z,4.85
2023-05-14T09:34:26.298Z,6.18
2023-05-14T09:37:03.743Z,6.55
2023-05-14T09:39:31.465Z,5.15
2023-05-14T09:41:59.006Z,11.07
2023-05-14T09:44:26.393Z,7.93
2023-05-14T09:46:54.407Z,9.25
2023-05-14T09:49:21.754Z,6.85
2023-05-14T09:51:52.194Z,8.00
2023-05-14T09:54:19.430Z,6.53
2023-05-14T09:56:46.607Z,8.57
2023-05-14T09:59:14.117Z,6.03
2023-05-14T10:01:43.595Z,7.20
2023-05-14T10:04:11.799Z,4.53
2023-05-14T10:06:39.491Z,7.57
2023-05-14T10:09:12.068Z,5.75
2023-05-14T10:11:39.792Z,8.27
2023-05-14T10:14:18.218Z,7.97
2023-05-14T10:16:49.527Z,4.93
2023-05-14T10:19:17.864Z,6.97
2023-05-14T10:21:46.150Z,6.07
2023-05-14T10:24:13.453Z,6.45
2023-05-14T10:26:41.952Z,5.60
2023-05-14T10:29:12.273Z,6.55
2023-05-14T10:31:54.048Z,7.25
2023-05-14T10:34:40.864Z,6.00
2023-05-14T10:37:09.991Z,6.15
2023-05-14T10:39:44.200Z,7.63
2023-05-14T10:42:12.475Z,7.53
2023-05-14T10:44:46.882Z,4.25
2023-05-14T10:47:14.715Z,5.07
2023-05-14T10:49:43.794Z,6.22
2023-05-14T10:52:11.711Z,5.53
2023-05-14T10:54:38.975Z,3.80
2023-05-14T10:57:10.943Z,5.45
2023-05-14T10:59:38.063Z,7.25
2023-05-14T11:02:19.425Z,4.13
2023-05-14T11:05:06.440Z,6.60
2023-05-14T11:07:34.719Z,4.28
2023-05-14T11:10:05.992Z,6.60
2023-05-14T11:12:37.264Z,5.43
2023-05-14T11:15:09.482Z,5.15
2023-05-14T11:17:37.238Z,5.72
2023-05-14T11:20:08.074Z,3.13
2023-05-14T11:22:35.898Z,3.75
2023-05-14T11:25:03.249Z,3.85
2023-05-14T11:27:31.341Z,4.43
2023-05-14T11:30:00.866Z,4.18
2023-05-14T11:32:28.172Z,3.90
2023-05-14T11:34:55.910Z,6.05
2023-05-14T11:37:23.004Z,5.50
2023-05-14T11:39:54.050Z,4.78
2023-05-14T11:42:22.353Z,3.22
2023-05-14T11:44:50.311Z,7.15
2023-05-14T11:47:18.441Z,6.03
2023-05-14T11:49:45.926Z,5.47
2023-05-14T11:52:14.708Z,7.45
2023-05-14T11:54:42.681Z,4.10
2023-05-14T11:57:13.513Z,3.72
2023-05-14T12:02:11.684Z,4.70
2023-05-14T12:04:39.429Z,4.07
2023-05-14T12:07:13.636Z,3.67
2023-05-14T12:09:44.190Z,3.03
2023-05-14T12:12:12.969Z,4.15
2023-05-14T12:14:42.516Z,2.80
2023-05-14T12:17:27.778Z,3.42
2023-05-14T12:19:56.379Z,5.80
2023-05-14T12:22:24.264Z,5.32
2023-05-14T12:24:58.120Z,5.93
2023-05-14T12:27:26.461Z,4.25
2023-05-14T12:30:20.100Z,5.88
2023-05-14T12:32:52.975Z,4.90
2023-05-14T12:35:22.744Z,4.10
2023-05-14T12:37:50.132Z,4.25
2023-05-14T12:40:17.254Z,7.45
2023-05-14T12:42:44.356Z,5.40
2023-05-14T12:45:11.846Z,5.70
2023-05-14T12:47:39.144Z,4.47
2023-05-14T12:50:06.593Z,2.80
2023-05-14T12:52:38.501Z,5.97
2023-05-14T12:55:07.550Z,4.47
2023-05-14T12:57:35.402Z,4.93
2023-05-14T13:00:06.344Z,3.50
2023-05-14T13:02:33.615Z,4.25
2023-05-14T13:05:13.655Z,3.38
2023-05-14T13:07:41.443Z,3.88
2023-05-14T13:10:09.157Z,3.63
2023-05-14T13:12:36.542Z,2.58
2023-05-14T13:15:03.990Z,5.68
2023-05-14T13:17:31.141Z,5.72
2023-05-14T13:19:58.342Z,3.10
2023-05-14T13:22:25.460Z,2.97
2023-05-14T13:24:52.512Z,2.70
2023-05-14T13:27:19.543Z,3.25
2023-05-14T13:29:46.583Z,3.75
2023-05-14T13:32:13.647Z,5.50
2023-05-14T13:34:40.759Z,5.90
2023-05-14T13:37:07.886Z,3.00
2023-05-14T13:39:34.981Z,3.88
2023-05-14T13:42:02.118Z,2.95
2023-05-14T13:44:29.386Z,5.70
2023-05-14T13:46:56.434Z,4.40
2023-05-14T13:49:23.666Z,4.00
2023-05-14T13:51:50.832Z,3.78
2023-05-14T13:54:18.596Z,4.38
2023-05-14T13:56:45.857Z,2.80
2023-05-14T13:59:13.068Z,4.35
2023-05-14T14:01:40.319Z,4.93
2023-05-14T14:04:07.396Z,3.95
2023-05-14T14:06:34.540Z,4.30
2023-05-14T14:09:01.750Z,2.95
2023-05-14T14:11:28.831Z,4.97
2023-05-14T14:13:55.956Z,3.55
2023-05-14T14:16:23.149Z,2.47
2023-05-14T14:18:50.327Z,6.65
2023-05-14T14:21:18.491Z,4.85
2023-05-14T14:23:48.657Z,4.18
2023-05-14T14:26:15.811Z,5.63
2023-05-14T14:28:43.021Z,4.72
2023-05-14T14:31:10.229Z,5.82
2023-05-14T14:33:37.284Z,4.45
2023-05-14T14:36:04.579Z,2.55
2023-05-14T14:38:31.667Z,3.20
2023-05-14T14:40:58.990Z,3.78
2023-05-14T14:43:26.057Z,3.33
2023-05-14T14:45:53.157Z,3.65
2023-05-14T14:48:41.115Z,2.40
2023-05-14T14:51:08.594Z,3.13
2023-05-14T14:53:36.952Z,3.45
2023-05-14T14:56:04.126Z,5.32
2023-05-14T14:58:31.244Z,4.00
2023-05-14T15:00:58.635Z,5.82
2023-05-14T15:03:26.834Z,3.42
2023-05-14T15:05:54.334Z,2.42
2023-05-14T15:08:25.307Z,3.40
2023-05-14T15:10:52.406Z,3.35
2023-05-14T15:13:19.867Z,3.40
2023-05-14T15:15:47.355Z,5.60
2023-05-14T15:18:14.462Z,5.03
2023-05-14T15:20:41.602Z,4.05
2023-05-14T15:23:08.709Z,4.47
2023-05-14T15:25:35.842Z,3.63
2023-05-14T15:28:02.991Z,3.42
2023-05-14T15:30:30.933Z,3.15
2023-05-14T15:32:58.085Z,2.63
2023-05-14T15:35:25.572Z,3.20
2023-05-14T15:37:56.246Z,2.28
2023-05-14T15:40:23.730Z,4.63
2023-05-14T15:42:50.967Z,6.35
2023-05-14T15:45:18.077Z,2.60
2023-05-14T15:47:45.385Z,2.67
2023-05-14T15:50:12.623Z,3.80
2023-05-14T15:52:41.471Z,3.47
2023-05-14T15:55:08.927Z,2.85
2023-05-14T15:57:36.039Z,6.30
2023-05-14T16:00:12.863Z,3.70
2023-05-14T16:02:40.202Z,4.45
2023-05-14T16:05:08.554Z,2.83
2023-05-14T16:07:35.853Z,2.90
2023-05-14T16:10:03.326Z,1.98
2023-05-14T16:12:30.526Z,3.30
2023-05-14T16:14:57.730Z,3.80
2023-05-14T16:17:25.078Z,4.85
2023-05-14T16:19:54.600Z,2.63
2023-05-14T16:22:23.047Z,4.15
2023-05-14T16:24:50.091Z,3.70
2023-05-14T16:27:19.144Z,2.58
2023-05-14T16:29:46.279Z,2.72
2023-05-14T16:32:13.455Z,6.13
2023-05-14T16:34:40.752Z,2.22
2023-05-14T16:37:08.237Z,4.63
2023-05-14T16:39:35.462Z,2.25
2023-05-14T16:42:02.618Z,3.75
2023-05-14T16:44:29.692Z,3.38
2023-05-14T16:46:56.868Z,3.47
2023-05-14T16:49:24.154Z,3.80
2023-05-14T16:51:51.204Z,5.03
2023-05-14T16:54:18.273Z,3.17
2023-05-14T16:56:48.445Z,3.33
2023-05-14T16:59:16.201Z,5.07
2023-05-14T17:01:43.910Z,2.83
2023-05-14T17:04:11.281Z,3.00
2023-05-14T17:06:38.462Z,2.42
2023-05-14T17:09:06.882Z,3.35
2023-05-14T17:11:34.087Z,4.18
2023-05-14T17:14:01.288Z,2.08
2023-05-14T17:16:28.831Z,3.65
2023-05-14T17:18:56.065Z,2.40
2023-05-14T17:21:23.162Z,4.68
2023-05-14T17:23:50.300Z,6.05
2023-05-14T17:26:17.490Z,4.65
2023-05-14T17:28:44.571Z,6.88
2023-05-14T17:31:11.746Z,3.30
2023-05-14T17:33:39.223Z,3.95
2023-05-14T17:36:06.522Z,3.58
2023-05-14T17:38:34.599Z,3.80
2023-05-14T17:41:02.190Z,2.97
2023-05-14T17:43:29.403Z,2.17
2023-05-14T17:45:56.573Z,3.22
2023-05-14T17:48:24.103Z,5.40
2023-05-14T17:50:51.777Z,4.93
2023-05-14T17:53:18.974Z,3.80
2023-05-14T17:55:46.564Z,3.63
2023-05-14T17:58:15.668Z,6.00
2023-05-14T18:00:43.838Z,7.35
2023-05-14T18:03:11.376Z,7.32
2023-05-14T18:05:38.822Z,9.38
2023-05-14T18:08:06.131Z,8.98
2023-05-14T18:10:33.401Z,12.10
2023-05-14T18:13:00.620Z,11.88
2023-05-14T18:15:27.728Z,10.13
2023-05-14T18:17:55.032Z,12.68
2023-05-14T18:20:22.271Z,11.32
2023-05-14T18:22:50.675Z,9.57
2023-05-14T18:25:17.884Z,13.98
2023-05-14T18:27:45.487Z,14.95
2023-05-14T18:30:14.425Z,12.48
2023-05-14T18:32:42.361Z,12.93
2023-05-14T18:35:09.637Z,11.30
2023-05-14T18:37:36.818Z,16.45
2023-05-14T18:40:07.193Z,11.68
2023-05-14T18:42:34.592Z,15.52
2023-05-14T18:45:01.797Z,14.25
2023-05-14T18:47:28.955Z,14.18
2023-05-14T18:49:59.035Z,12.50
2023-05-14T18:52:26.529Z,16.95
2023-05-14T18:54:54.643Z,15.52
2023-05-14T18:57:22.119Z,16.52
2023-05-14T18:59:49.225Z,14.45
2023-05-14T19:02:16.634Z,14.98
2023-05-14T19:04:52.487Z,15.88
2023-05-14T19:07:20.563Z,17.02
2023-05-14T19:09:47.801Z,16.10
2023-05-14T19:12:15.361Z,17.02
2023-05-14T19:14:42.509Z,16.63
2023-05-14T19:17:09.669Z,19.10
2023-05-14T19:19:37.680Z,14.18
2023-05-14T19:22:04.803Z,17.77
2023-05-14T19:24:32.148Z,18.20
2023-05-14T19:26:59.304Z,18.80
2023-05-14T19:29:26.397Z,15.70
2023-05-14T19:31:53.539Z,16.33
2023-05-14T19:34:20.654Z,13.98
2023-05-14T19:36:47.781Z,15.13
2023-05-14T19:39:14.852Z,16.08
2023-05-14T19:41:41.986Z,15.77
2023-05-14T19:44:09.194Z,15.27
2023-05-14T19:46:36.419Z,15.85
2023-05-14T19:49:03.519Z,15.95
2023-05-14T19:51:30.807Z,17.95
2023-05-14T19:53:57.947Z,17.83
2023-05-14T19:56:27.099Z,19.10
2023-05-14T19:58:54.780Z,19.65
2023-05-14T20:01:22.011Z,17.17
2023-05-14T20:03:49.280Z,20.13
2023-05-14T20:06:17.399Z,21.98
2023-05-14T20:08:45.410Z,18.48
2023-05-14T20:11:12.671Z,19.52
2023-05-14T20:13:39.748Z,20.55
2023-05-14T20:16:06.849Z,18.05
2023-05-14T20:18:33.970Z,18.65
2023-05-14T20:21:01.233Z,19.83
2023-05-14T20:23:28.428Z,19.85
2023-05-14T20:25:55.727Z,22.23
2023-05-14T20:28:22.846Z,24.08
2023-05-14T20:30:50.064Z,22.95
2023-05-14T20:33:17.378Z,18.45
2023-05-14T20:35:44.706Z,21.83
2023-05-14T20:38:13.338Z,25.45
2023-05-14T20:40:40.613Z,23.92
2023-05-14T20:43:07.691Z,24.77
2023-05-14T20:45:34.859Z,22.88
2023-05-14T20:48:01.981Z,22.77
2023-05-14T20:50:29.134Z,25.48
2023-05-14T20:52:56.604Z,23.15
2023-05-14T20:55:23.959Z,23.75
2023-05-14T20:57:51.313Z,22.42
2023-05-14T21:00:18.590Z,22.50
2023-05-14T21:02:45.890Z,27.80
2023-05-14T21:05:13.920Z,24.73
2023-05-14T21:07:41.034Z,29.15
2023-05-14T21:10:09.716Z,27.17
2023-05-14T21:12:36.930Z,25.00
2023-05-14T21:15:04.403Z,27.20
2023-05-14T21:17:31.531Z,26.95
2023-05-14T21:19:58.659Z,25.92
2023-05-14T21:22:25.840Z,27.35
2023-05-14T21:24:52.961Z,31.77
2023-05-14T21:27:20.071Z,28.35
2023-05-14T21:29:47.262Z,29.08
2023-05-14T21:32:14.401Z,29.90
2023-05-14T21:34:41.537Z,29.50
2023-05-14T21:37:08.653Z,27.83
2023-05-14T21:39:35.725Z,28.00
2023-05-14T21:42:02.759Z,30.42
2023-05-14T21:44:29.916Z,28.05
2023-05-14T21:46:58.341Z,30.23
2023-05-14T21:49:25.454Z,31.38
2023-05-14T21:51:54.430Z,27.45
2023-05-14T21:54:21.632Z,29.25
2023-05-14T21:56:48.872Z,31.70
2023-05-14T21:59:16.107Z,26.33
2023-05-14T22:04:13.597Z,28.30
2023-05-14T22:06:41.186Z,25.67
2023-05-14T22:09:11.268Z,28.80
2023-05-14T22:11:38.487Z,26.15
2023-05-14T22:14:05.566Z,25.92
2023-05-14T22:16:33.304Z,28.27
2023-05-14T22:19:00.544Z,28.38
2023-05-14T22:21:27.668Z,26.17
2023-05-14T22:23:54.724Z,29.67
2023-05-14T22:26:21.842Z,29.58
2023-05-14T22:28:49.582Z,27.33
2023-05-14T22:31:16.750Z,24.70
2023-05-14T22:33:43.884Z,27.42
2023-05-14T22:36:10.921Z,28.27
2023-05-14T22:38:38.314Z,29.85
2023-05-14T22:41:05.424Z,33.63
2023-05-14T22:43:32.512Z,27.30
2023-05-14T22:45:59.951Z,33.95
2023-05-14T22:48:27.054Z,30.27
2023-05-14T22:50:54.216Z,28.30
2023-05-14T22:53:21.326Z,33.50
2023-05-14T22:55:48.402Z,33.45
2023-05-14T22:58:15.578Z,30.98
2023-05-14T23:00:42.654Z,31.55
2023-05-14T23:03:09.829Z,31.48
2023-05-14T23:05:36.931Z,32.00
2023-05-14T23:08:04.062Z,32.05
2023-05-14T23:10:31.262Z,34.55
2023-05-14T23:12:58.463Z,33.67
2023-05-14T23:15:25.755Z,32.80
2023-05-14T23:17:53.203Z,32.25
2023-05-14T23:20:20.473Z,32.47
2023-05-14T23:22:47.712Z,42.10
2023-05-14T23:25:14.864Z,30.42
2023-05-14T23:27:41.923Z,29.05
2023-05-14T23:30:09.226Z,33.28
2023-05-14T23:32:36.310Z,33.72
2023-05-14T23:35:03.523Z,30.52
2023-05-14T23:37:30.649Z,35.55
2023-05-14T23:39:57.830Z,39.42
2023-05-14T23:42:24.998Z,36.00
2023-05-14T23:44:52.114Z,38.30
2023-05-14T23:47:19.266Z,35.42
2023-05-14T23:49:46.406Z,41.03
2023-05-14T23:52:13.518Z,37.50
2023-05-14T23:54:40.558Z,34.67
2023-05-14T23:57:07.699Z,47.63
2023-05-14T23:59:34.751Z,38.10
